Historique des mesures à Cassis (13260), France
Quotidien Résumé Mars 12, 2021 Unités:  Métrique/US    US   Métrique
Quotidien Hebdomadaire Mensuel Annuel
  Maximum: Minimum: Moyenne:
Température: 68.5 °F /  20.3 °C 55.4 °F /  13 °C 60.8 °F /  16 °C
Point de rosée: 49.3 °F /  9.6 °C 41.9 °F /  5.5 °C 44.8 °F /  7.1 °C
Humidité: 62% 44% 56%
Vitesse du vent: 19.9mph /  32km/h - 7.6mph /  12.2km/h
Rafales: 22.4mph /  36km/h - -
Vent- - NW
Pression: 30 in /  1015.4 hPa 29.8 in /  1009.4 hPa -
Précipitations: 0 in /  0.0 mm    
Historical Graphs
 
 
Mesures pour : Mars 12, 2021
Heure Temperature Point de rosée Pression Vent Vitesse du vent Rafales Humidité Pluie (par heure)
00:11 57.9 °F /  14.4 °C 44.6 °F /  7 °C 30in /  1015.3hPa NW 2.2mph /  3.6km/h 3.4mph /  5.4km/h 61% 0in /  0.0mm
01:11 56.8 °F /  13.8 °C 43.9 °F /  6.6 °C 30in /  1015.4hPa NNW 2.5mph /  4km/h 6mph /  9.7km/h 62% 0in /  0.0mm
02:11 56.8 °F /  13.8 °C 43.5 °F /  6.4 °C 30in /  1015.1hPa NNW 4.2mph /  6.8km/h 8.5mph /  13.7km/h 61% 0in /  0.0mm
03:11 56.5 °F /  13.6 °C 41.9 °F /  5.5 °C 30in /  1015.0hPa NNW 5.2mph /  8.3km/h 11.4mph /  18.4km/h 58% 0in /  0.0mm
04:11 56.8 °F /  13.8 °C 42.6 °F /  5.9 °C 30in /  1014.2hPa NNW 9.4mph /  15.1km/h 9.8mph /  15.8km/h 59% 0in /  0.0mm
05:11 56.3 °F /  13.5 °C 42.1 °F /  5.6 °C 29.9in /  1013.8hPa NW 8.9mph /  14.4km/h 10.7mph /  17.3km/h 59% 0in /  0.0mm
06:11 55.9 °F /  13.3 °C 42.3 °F /  5.7 °C 29.9in /  1013.5hPa NW 10.3mph /  16.6km/h 10.7mph /  17.3km/h 60% 0in /  0.0mm
07:11 55.4 °F /  13 °C 42.1 °F /  5.6 °C 29.9in /  1013.3hPa NW 5.2mph /  8.3km/h 9.6mph /  15.5km/h 61% 0in /  0.0mm
08:11 55.6 °F /  13.1 °C 42.3 °F /  5.7 °C 29.9in /  1013.3hPa WNW 6.3mph /  10.1km/h 10.3mph /  16.6km/h 61% 0in /  0.0mm
09:11 57.4 °F /  14.1 °C 44.1 °F /  6.7 °C 29.9in /  1013.5hPa NNW 4.5mph /  7.2km/h 8.3mph /  13.3km/h 61% 0in /  0.0mm
10:11 59.4 °F /  15.2 °C 45.9 °F /  7.7 °C 29.9in /  1013.2hPa NNW 7.8mph /  12.6km/h 7.8mph /  12.6km/h 61% 0in /  0.0mm
11:11 62.2 °F /  16.8 °C 48.7 °F /  9.3 °C 29.9in /  1012.8hPa NNW 2.7mph /  4.3km/h 8.7mph /  14km/h 61% 0in /  0.0mm
12:11 64.9 °F /  18.3 °C 49.3 °F /  9.6 °C 29.9in /  1012.5hPa WNW 3.4mph /  5.4km/h 8.9mph /  14.4km/h 57% 0in /  0.0mm
13:11 66.6 °F /  19.2 °C 48.9 °F /  9.4 °C 29.9in /  1011.8hPa NW 2.7mph /  4.3km/h 8.3mph /  13.3km/h 53% 0in /  0.0mm
14:11 67.3 °F /  19.6 °C 48 °F /  8.9 °C 29.9in /  1011.0hPa West 6.5mph /  10.4km/h 16.3mph /  26.3km/h 50% 0in /  0.0mm
15:11 68.5 °F /  20.3 °C 46.9 °F /  8.3 °C 29.8in /  1010.1hPa West 11.6mph /  18.7km/h 22.4mph /  36km/h 46% 0in /  0.0mm
16:11 68.4 °F /  20.2 °C 45.5 °F /  7.5 °C 29.8in /  1010.0hPa West 10.3mph /  16.6km/h 14.5mph /  23.4km/h 44% 0in /  0.0mm
17:11 67.6 °F /  19.8 °C 45.5 °F /  7.5 °C 29.8in /  1009.7hPa WNW 11.9mph /  19.1km/h 18.3mph /  29.5km/h 45% 0in /  0.0mm
18:11 65.8 °F /  18.8 °C 45.5 °F /  7.5 °C 29.8in /  1009.4hPa West 10.9mph /  17.6km/h 19mph /  30.6km/h 48% 0in /  0.0mm
19:11 62.4 °F /  16.9 °C 44.6 °F /  7 °C 29.8in /  1010.3hPa WNW 19.9mph /  32km/h 19.9mph /  32km/h 52% 0in /  0.0mm
20:11 60.8 °F /  16 °C 44.1 °F /  6.7 °C 29.8in /  1010.5hPa WNW 7.4mph /  11.9km/h 13.2mph /  21.2km/h 54% 0in /  0.0mm
21:11 60.6 °F /  15.9 °C 43.9 °F /  6.6 °C 29.8in /  1010.4hPa West 12.1mph /  19.4km/h 22.4mph /  36km/h 54% 0in /  0.0mm
22:11 59.9 °F /  15.5 °C 43.7 °F /  6.5 °C 29.8in /  1010.4hPa WNW 6mph /  9.7km/h 10.3mph /  16.6km/h 55% 0in /  0.0mm
23:11 58.8 °F /  14.9 °C 43.5 °F /  6.4 °C 29.8in /  1010.5hPa WNW 10.3mph /  16.6km/h 15.9mph /  25.6km/h 57% 0in /  0.0mm
Observations météo à CASSIS
WU-History script by Weather Underground - 2 mb